EmailTwitter


Observations de surface / Québec / EGYD

Régions: Québec | Canada | États-Unis | Europe | France | UK | Elsewhere
Station
Affichage
Infos & localisation pour EGYD | Aide pour décoder les METARs

Observations prises le 2017-02-24 à 09H50 UTC à CRANWELL RAF, UK (EGYD)

Etat du ciel: partiellement nuageux.

Température: 5.0 Celsius

Point de rosée: 2.0 Celsius

Humidité relative: 81%

Facteur vent: 2.

Vents: Ouest à 11 km/h ou 6 noeuds.

Pression au niveau moyen de la mer: 101.40 kilopascals.

Visibilité horizontale: 6.21 milles terrestres ou 9.94 kilomètres.

Hauteur du plafond: 1067 mètres ( 3500 pieds ).

Observation METAR:

EGYD 240950Z 27006KT 9999 FEW018 BKN035 05/02 Q1014 BLU NOSIG=